createdAt,value
2018-09-18T00:00:33.012Z,5.27
2018-09-18T00:02:08.558Z,5.10
2018-09-18T00:03:44.050Z,5.30
2018-09-18T00:05:19.562Z,5.10
2018-09-18T00:06:54.999Z,5.33
2018-09-18T00:08:30.463Z,5.00
2018-09-18T00:10:06.616Z,4.97
2018-09-18T00:11:42.129Z,5.23
2018-09-18T00:13:17.635Z,4.70
2018-09-18T00:14:53.165Z,4.70
2018-09-18T00:16:28.660Z,5.40
2018-09-18T00:18:04.116Z,6.43
2018-09-18T00:19:39.605Z,5.47
2018-09-18T00:21:15.157Z,4.60
2018-09-18T00:22:50.635Z,5.43
2018-09-18T00:24:26.162Z,4.77
2018-09-18T00:26:01.660Z,5.17
2018-09-18T00:27:37.151Z,5.40
2018-09-18T00:29:12.615Z,6.27
2018-09-18T00:30:48.102Z,5.27
2018-09-18T00:32:23.674Z,5.17
2018-09-18T00:33:59.148Z,4.90
2018-09-18T00:35:34.587Z,5.00
2018-09-18T00:37:10.010Z,5.00
2018-09-18T00:38:45.485Z,4.73
2018-09-18T00:40:26.242Z,5.07
2018-09-18T00:42:02.807Z,4.90
2018-09-18T00:43:38.291Z,4.63
2018-09-18T00:45:13.752Z,4.40
2018-09-18T00:46:49.242Z,4.43
2018-09-18T00:48:24.750Z,4.53
2018-09-18T00:50:00.298Z,4.60
2018-09-18T00:51:35.746Z,4.83
2018-09-18T00:53:11.271Z,4.57
2018-09-18T00:54:46.838Z,4.87
2018-09-18T00:56:22.380Z,5.30
2018-09-18T00:57:57.877Z,4.70
2018-09-18T00:59:33.551Z,4.27
2018-09-18T01:01:09.103Z,5.80
2018-09-18T01:02:44.628Z,4.10
2018-09-18T01:04:20.230Z,4.93
2018-09-18T01:05:55.820Z,5.47
2018-09-18T01:07:31.298Z,5.13
2018-09-18T01:09:08.225Z,5.87
2018-09-18T01:10:43.868Z,4.83
2018-09-18T01:12:19.400Z,4.90
2018-09-18T01:13:55.088Z,4.83
2018-09-18T01:15:30.599Z,4.80
2018-09-18T01:17:06.144Z,4.70
2018-09-18T01:18:42.654Z,4.90
2018-09-18T01:20:18.167Z,4.93
2018-09-18T01:21:53.664Z,5.20
2018-09-18T01:23:29.160Z,4.50
2018-09-18T01:25:04.677Z,4.60
2018-09-18T01:26:40.175Z,4.63
2018-09-18T01:28:15.821Z,5.53
2018-09-18T01:29:51.335Z,4.87
2018-09-18T01:31:26.846Z,5.00
2018-09-18T01:33:02.502Z,6.00
2018-09-18T01:34:38.008Z,5.20
2018-09-18T01:36:13.460Z,4.90
2018-09-18T01:37:48.928Z,5.73
2018-09-18T01:39:24.522Z,5.80
2018-09-18T01:41:00.029Z,5.57
2018-09-18T01:42:35.772Z,5.60
2018-09-18T01:44:11.311Z,5.47
2018-09-18T01:45:46.842Z,5.03
2018-09-18T01:47:22.413Z,4.90
2018-09-18T01:48:57.879Z,5.50
2018-09-18T01:50:33.440Z,5.07
2018-09-18T01:52:08.912Z,5.03
2018-09-18T01:53:44.422Z,5.10
2018-09-18T01:55:19.860Z,5.40
2018-09-18T01:56:55.400Z,6.10
2018-09-18T01:58:30.938Z,4.90
2018-09-18T02:00:06.449Z,5.30
2018-09-18T02:01:41.903Z,5.07
2018-09-18T02:03:17.446Z,4.93
2018-09-18T02:04:52.951Z,5.40
2018-09-18T02:06:28.414Z,5.23
2018-09-18T02:08:03.900Z,5.83
2018-09-18T02:09:39.397Z,5.20
2018-09-18T02:11:14.900Z,5.07
2018-09-18T02:12:50.371Z,5.13
2018-09-18T02:14:25.966Z,4.90
2018-09-18T02:16:01.756Z,5.00
2018-09-18T02:17:37.293Z,4.70
2018-09-18T02:19:12.842Z,5.17
2018-09-18T02:20:48.332Z,4.43
2018-09-18T02:22:23.919Z,4.90
2018-09-18T02:23:59.636Z,4.23
2018-09-18T02:25:35.140Z,6.80
2018-09-18T02:27:10.638Z,8.57
2018-09-18T02:28:47.028Z,5.17
2018-09-18T02:30:22.505Z,5.37
2018-09-18T02:31:57.987Z,5.20
2018-09-18T02:33:33.473Z,5.33
2018-09-18T02:35:08.996Z,5.20
2018-09-18T02:36:44.485Z,4.70
2018-09-18T02:38:20.039Z,5.10
2018-09-18T02:39:55.527Z,5.00
2018-09-18T02:41:31.065Z,5.73
2018-09-18T02:43:06.543Z,5.00
2018-09-18T02:44:42.036Z,4.77
2018-09-18T02:46:17.661Z,4.70
2018-09-18T02:47:53.487Z,4.87
2018-09-18T02:49:29.110Z,5.17
2018-09-18T02:51:04.588Z,4.97
2018-09-18T02:52:40.498Z,5.07
2018-09-18T02:54:16.048Z,5.23
2018-09-18T02:55:51.571Z,4.90
2018-09-18T02:57:27.074Z,4.70
2018-09-18T02:59:02.554Z,5.27
2018-09-18T03:00:38.329Z,5.17
2018-09-18T03:02:13.844Z,4.57
2018-09-18T03:03:49.372Z,4.70
2018-09-18T03:05:24.867Z,4.70
2018-09-18T03:07:00.329Z,4.70
2018-09-18T03:08:35.832Z,5.73
2018-09-18T03:10:11.313Z,4.60
2018-09-18T03:11:46.823Z,5.20
2018-09-18T03:13:22.281Z,4.53
2018-09-18T03:14:57.812Z,5.80
2018-09-18T03:16:33.284Z,4.90
2018-09-18T03:18:08.789Z,5.13
2018-09-18T03:19:44.269Z,5.33
2018-09-18T03:21:20.065Z,4.70
2018-09-18T03:22:55.546Z,5.00
2018-09-18T03:24:31.003Z,5.17
2018-09-18T03:26:06.505Z,5.07
2018-09-18T03:27:42.236Z,5.20
2018-09-18T03:29:17.722Z,5.00
2018-09-18T03:30:53.193Z,4.27
2018-09-18T03:32:28.658Z,4.77
2018-09-18T03:34:04.188Z,4.80
2018-09-18T03:35:39.692Z,4.53
2018-09-18T03:37:15.105Z,4.87
2018-09-18T03:38:50.605Z,5.00
2018-09-18T03:40:26.104Z,4.80
2018-09-18T03:42:01.598Z,4.93
2018-09-18T03:43:37.261Z,5.00
2018-09-18T03:45:12.740Z,4.93
2018-09-18T03:46:48.210Z,5.17
2018-09-18T03:48:23.802Z,4.23
2018-09-18T03:49:59.273Z,4.90
2018-09-18T03:51:34.762Z,5.30
2018-09-18T03:53:10.341Z,4.53
2018-09-18T03:54:46.061Z,4.90
2018-09-18T03:56:21.663Z,4.57
2018-09-18T03:57:57.159Z,4.93
2018-09-18T03:59:32.673Z,5.60
2018-09-18T04:01:08.678Z,4.77
2018-09-18T04:02:44.187Z,4.60
2018-09-18T04:04:19.751Z,4.90
2018-09-18T04:05:55.281Z,4.53
2018-09-18T04:07:30.800Z,5.07
2018-09-18T04:09:08.615Z,4.50
2018-09-18T04:10:44.138Z,4.90
2018-09-18T04:12:20.055Z,4.70
2018-09-18T04:13:55.565Z,4.93
2018-09-18T04:15:31.077Z,4.63
2018-09-18T04:17:06.570Z,4.93
2018-09-18T04:18:42.084Z,5.10
2018-09-18T04:20:17.614Z,4.70
2018-09-18T04:21:53.417Z,5.70
2018-09-18T04:23:28.885Z,5.30
2018-09-18T04:25:04.380Z,4.67
2018-09-18T04:26:41.186Z,5.07
2018-09-18T04:28:16.756Z,5.03
2018-09-18T04:29:52.272Z,5.53
2018-09-18T04:31:27.743Z,4.97
2018-09-18T04:33:03.305Z,5.40
2018-09-18T04:34:39.214Z,5.33
2018-09-18T04:36:14.777Z,5.20
2018-09-18T04:37:50.468Z,4.80
2018-09-18T04:39:26.060Z,5.50
2018-09-18T04:41:01.547Z,4.90
2018-09-18T04:42:37.099Z,5.10
2018-09-18T04:44:12.597Z,5.10
2018-09-18T04:45:48.179Z,4.77
2018-09-18T04:47:24.014Z,4.53
2018-09-18T04:49:00.096Z,4.63
2018-09-18T04:50:35.609Z,5.47
2018-09-18T04:52:11.098Z,4.83
2018-09-18T04:53:53.327Z,5.20
2018-09-18T04:55:28.901Z,5.73
2018-09-18T04:57:04.403Z,5.27
2018-09-18T04:58:39.884Z,4.77
2018-09-18T05:00:15.404Z,4.87
2018-09-18T05:01:50.915Z,4.83
2018-09-18T05:03:26.933Z,5.47
2018-09-18T05:05:02.876Z,7.50
2018-09-18T05:06:38.782Z,5.37
2018-09-18T05:08:14.354Z,4.83
2018-09-18T05:09:49.989Z,7.13
2018-09-18T05:11:26.019Z,5.80
2018-09-18T05:13:05.218Z,5.63
2018-09-18T05:14:42.730Z,5.40
2018-09-18T05:16:18.274Z,6.00
2018-09-18T05:17:53.749Z,6.30
2018-09-18T05:19:29.295Z,6.43
2018-09-18T05:21:04.890Z,6.80
2018-09-18T05:22:40.345Z,5.73
2018-09-18T05:24:15.825Z,5.83
2018-09-18T05:25:57.739Z,5.00
2018-09-18T05:27:33.236Z,5.27
2018-09-18T05:29:08.771Z,5.70
2018-09-18T05:30:44.268Z,5.53
2018-09-18T05:32:19.811Z,5.70
2018-09-18T05:34:10.140Z,5.77
2018-09-18T05:35:45.652Z,6.33
2018-09-18T05:37:21.172Z,5.57
2018-09-18T05:38:56.960Z,5.70
2018-09-18T05:40:32.384Z,7.60
2018-09-18T05:42:07.869Z,5.83
2018-09-18T05:43:44.224Z,5.60
2018-09-18T05:45:19.771Z,5.37
2018-09-18T05:46:55.275Z,6.53
2018-09-18T05:48:34.402Z,7.00
2018-09-18T05:50:09.866Z,6.60
2018-09-18T05:51:45.358Z,7.97
2018-09-18T05:53:20.807Z,7.93
2018-09-18T05:54:56.322Z,7.30
2018-09-18T05:56:31.790Z,6.57
2018-09-18T05:58:07.346Z,6.63
2018-09-18T05:59:42.850Z,6.07
2018-09-18T06:01:18.322Z,6.40
2018-09-18T06:02:54.100Z,7.20
2018-09-18T06:04:29.609Z,5.80
2018-09-18T06:06:05.128Z,6.10
2018-09-18T06:07:40.965Z,6.20
2018-09-18T06:09:16.438Z,6.33
2018-09-18T06:10:51.893Z,6.43
2018-09-18T06:12:27.406Z,6.77
2018-09-18T06:14:02.893Z,5.43
2018-09-18T06:15:38.306Z,6.37
2018-09-18T06:17:13.795Z,5.93
2018-09-18T06:18:49.375Z,5.53
2018-09-18T06:20:24.826Z,7.40
2018-09-18T06:22:00.312Z,6.67
2018-09-18T06:23:36.435Z,7.57
2018-09-18T06:25:12.008Z,7.70
2018-09-18T06:26:47.506Z,7.67
2018-09-18T06:28:22.979Z,6.70
2018-09-18T06:29:58.492Z,7.50
2018-09-18T06:31:34.034Z,7.87
2018-09-18T06:33:09.578Z,7.43
2018-09-18T06:34:45.200Z,7.60
2018-09-18T06:36:21.681Z,7.40
2018-09-18T06:37:57.294Z,7.17
2018-09-18T06:39:32.779Z,7.63
2018-09-18T06:41:08.684Z,8.10
2018-09-18T06:42:44.140Z,7.80
2018-09-18T06:44:19.665Z,8.30
2018-09-18T06:45:55.218Z,8.77
2018-09-18T06:47:30.986Z,8.10
2018-09-18T06:49:06.521Z,8.20
2018-09-18T06:50:42.351Z,8.60
2018-09-18T06:52:17.964Z,8.63
2018-09-18T06:53:53.447Z,8.43
2018-09-18T06:55:28.965Z,8.60
2018-09-18T06:57:04.427Z,8.00
2018-09-18T06:58:39.957Z,7.87
2018-09-18T07:00:15.459Z,8.10
2018-09-18T07:01:51.041Z,7.97
2018-09-18T07:03:26.589Z,8.30
2018-09-18T07:05:03.024Z,8.80
2018-09-18T07:06:45.116Z,8.23
2018-09-18T07:08:20.684Z,8.90
2018-09-18T07:09:56.166Z,8.37
2018-09-18T07:11:31.758Z,7.80
2018-09-18T07:13:07.251Z,8.23
2018-09-18T07:14:43.354Z,9.03
2018-09-18T07:16:18.930Z,8.57
2018-09-18T07:17:54.458Z,10.73
2018-09-18T07:19:30.051Z,8.37
2018-09-18T07:21:05.802Z,10.43
2018-09-18T07:22:41.388Z,8.93
2018-09-18T07:24:16.866Z,9.70
2018-09-18T07:25:52.342Z,10.63
2018-09-18T07:27:27.877Z,11.43
2018-09-18T07:29:03.396Z,8.20
2018-09-18T07:30:38.941Z,10.17
2018-09-18T07:32:14.485Z,12.37
2018-09-18T07:33:50.390Z,9.70
2018-09-18T07:35:25.849Z,9.27
2018-09-18T07:37:01.337Z,10.03
2018-09-18T07:38:36.899Z,8.80
2018-09-18T07:40:13.308Z,10.10
2018-09-18T07:41:48.866Z,8.50
2018-09-18T07:43:24.406Z,8.33
2018-09-18T07:44:59.903Z,8.90
2018-09-18T07:46:35.416Z,9.13
2018-09-18T07:48:11.028Z,8.20
2018-09-18T07:49:46.649Z,7.93
2018-09-18T07:51:22.139Z,8.47
2018-09-18T07:52:57.871Z,8.10
2018-09-18T07:54:33.347Z,8.87
2018-09-18T07:56:08.861Z,8.60
2018-09-18T07:57:44.369Z,8.73
2018-09-18T07:59:19.862Z,7.93
2018-09-18T08:00:55.360Z,8.30
2018-09-18T08:02:30.958Z,9.60
2018-09-18T08:04:06.414Z,8.03
2018-09-18T08:05:41.899Z,11.60
2018-09-18T08:07:17.460Z,16.63
2018-09-18T08:08:54.097Z,11.63
2018-09-18T08:10:29.593Z,19.97
2018-09-18T08:12:05.094Z,10.87
2018-09-18T08:13:40.651Z,9.23
2018-09-18T08:15:16.164Z,15.10
2018-09-18T08:16:51.663Z,7.53
2018-09-18T08:18:27.146Z,11.57
2018-09-18T08:20:02.674Z,8.23
2018-09-18T08:21:38.237Z,6.73
2018-09-18T08:23:13.706Z,6.23
2018-09-18T08:24:49.736Z,6.20
2018-09-18T08:26:25.196Z,6.17
2018-09-18T08:28:00.776Z,6.83
2018-09-18T08:29:37.053Z,6.30
2018-09-18T08:31:12.572Z,6.40
2018-09-18T08:32:48.153Z,6.33
2018-09-18T08:34:23.896Z,7.03
2018-09-18T08:36:13.956Z,6.20
2018-09-18T08:37:49.464Z,7.57
2018-09-18T08:39:24.984Z,5.80
2018-09-18T08:41:00.525Z,6.17
2018-09-18T08:42:35.968Z,5.80
2018-09-18T08:44:11.461Z,5.70
2018-09-18T08:47:37.212Z,7.47
2018-09-18T08:49:12.692Z,5.97
2018-09-18T08:50:48.170Z,6.47
2018-09-18T08:52:23.616Z,6.60
2018-09-18T08:53:59.132Z,5.93
2018-09-18T08:55:34.659Z,6.73
2018-09-18T08:57:10.125Z,8.30
2018-09-18T08:58:45.683Z,6.07
2018-09-18T09:00:21.151Z,6.67
2018-09-18T09:01:56.689Z,5.97
2018-09-18T09:03:32.177Z,6.40
2018-09-18T09:05:07.674Z,6.37
2018-09-18T09:06:43.203Z,6.07
2018-09-18T09:08:18.794Z,5.60
2018-09-18T09:09:54.189Z,5.93
2018-09-18T09:11:29.694Z,5.63
2018-09-18T09:13:05.224Z,5.60
2018-09-18T09:14:47.533Z,5.67
2018-09-18T09:16:22.985Z,6.10
2018-09-18T09:17:58.556Z,6.17
2018-09-18T09:19:34.024Z,5.63
2018-09-18T09:21:09.671Z,6.47
2018-09-18T09:22:45.163Z,6.57
2018-09-18T09:24:20.526Z,5.27
2018-09-18T09:25:56.084Z,5.33
2018-09-18T09:27:31.719Z,5.70
2018-09-18T09:29:07.106Z,5.17
2018-09-18T09:30:42.642Z,5.67
2018-09-18T09:32:18.239Z,5.30
2018-09-18T09:33:53.680Z,5.30
2018-09-18T09:35:29.173Z,5.97
2018-09-18T09:37:04.698Z,5.97
2018-09-18T09:38:40.423Z,6.20
2018-09-18T09:40:15.885Z,5.40
2018-09-18T09:41:51.602Z,5.23
2018-09-18T09:43:27.120Z,5.83
2018-09-18T09:45:02.791Z,5.30
2018-09-18T09:46:38.232Z,5.70
2018-09-18T09:48:13.705Z,4.73
2018-09-18T09:49:49.222Z,5.20
2018-09-18T09:51:24.881Z,4.60
2018-09-18T09:53:00.342Z,4.53
2018-09-18T09:54:35.850Z,4.50
2018-09-18T09:56:11.328Z,4.77
2018-09-18T09:57:47.094Z,4.60
2018-09-18T09:59:22.933Z,6.53
2018-09-18T10:01:03.857Z,4.20
2018-09-18T10:02:45.038Z,4.00
2018-09-18T10:04:20.617Z,5.23
2018-09-18T10:05:56.220Z,4.40
2018-09-18T10:07:31.778Z,4.27
2018-09-18T10:09:09.365Z,4.33
2018-09-18T10:10:45.029Z,4.27
2018-09-18T10:12:20.451Z,4.40
2018-09-18T10:13:55.988Z,4.20
2018-09-18T10:15:31.592Z,4.50
2018-09-18T10:17:08.193Z,4.47
2018-09-18T10:18:43.737Z,3.93
2018-09-18T10:20:19.254Z,4.13
2018-09-18T10:21:54.755Z,4.40
2018-09-18T10:23:30.250Z,4.03
2018-09-18T10:25:06.104Z,4.00
2018-09-18T10:26:41.645Z,4.33
2018-09-18T10:28:17.158Z,5.30
2018-09-18T10:29:52.736Z,5.23
2018-09-18T10:31:28.261Z,4.40
2018-09-18T10:33:04.038Z,4.43
2018-09-18T10:34:39.545Z,4.77
2018-09-18T10:36:15.055Z,3.93
2018-09-18T10:37:50.592Z,4.33
2018-09-18T10:39:26.091Z,4.97
2018-09-18T10:41:01.702Z,4.83
2018-09-18T10:42:37.066Z,3.83
2018-09-18T10:44:12.519Z,3.77
2018-09-18T10:45:48.000Z,3.57
2018-09-18T10:47:23.548Z,4.27
2018-09-18T10:48:59.036Z,3.37
2018-09-18T10:50:34.611Z,3.00
2018-09-18T10:52:10.159Z,4.33
2018-09-18T10:53:45.620Z,3.67
2018-09-18T10:55:21.182Z,5.60
2018-09-18T10:56:56.688Z,3.40
2018-09-18T10:58:32.198Z,3.17
2018-09-18T11:00:08.189Z,3.43
2018-09-18T11:01:43.713Z,4.10
2018-09-18T11:03:19.354Z,3.40
2018-09-18T11:04:54.788Z,3.90
2018-09-18T11:06:30.396Z,3.93
2018-09-18T11:08:05.950Z,3.73
2018-09-18T11:09:41.575Z,4.03
2018-09-18T11:11:17.006Z,4.40
2018-09-18T11:12:52.458Z,3.60
2018-09-18T11:14:28.173Z,7.43
2018-09-18T11:16:03.705Z,4.03
2018-09-18T11:17:40.197Z,6.93
2018-09-18T11:19:15.766Z,6.40
2018-09-18T11:20:51.292Z,8.80
2018-09-18T11:22:26.971Z,4.73
2018-09-18T11:24:02.354Z,4.20
2018-09-18T11:25:37.933Z,5.10
2018-09-18T11:27:13.419Z,4.20
2018-09-18T11:28:48.993Z,3.33
2018-09-18T11:30:24.478Z,3.60
2018-09-18T11:32:00.005Z,3.40
2018-09-18T11:33:36.388Z,4.50
2018-09-18T11:35:11.930Z,3.30
2018-09-18T11:36:47.464Z,5.07
2018-09-18T11:38:22.989Z,3.23
2018-09-18T11:39:58.493Z,3.90
2018-09-18T11:41:34.037Z,4.10
2018-09-18T11:43:15.929Z,4.87
2018-09-18T11:44:51.429Z,3.63
2018-09-18T11:46:26.941Z,3.40
2018-09-18T11:48:03.229Z,3.53
2018-09-18T11:49:38.733Z,3.20
2018-09-18T11:51:15.431Z,3.00
2018-09-18T11:52:50.901Z,3.27
2018-09-18T11:54:26.418Z,4.83
2018-09-18T11:56:01.881Z,3.60
2018-09-18T11:57:37.368Z,3.30
2018-09-18T11:59:12.912Z,3.07
2018-09-18T12:00:48.561Z,4.27
2018-09-18T12:02:24.057Z,2.90
2018-09-18T12:03:59.540Z,3.12
2018-09-18T12:05:35.139Z,4.10
2018-09-18T12:07:10.616Z,2.90
2018-09-18T12:08:46.181Z,3.47
2018-09-18T12:10:21.687Z,2.90
2018-09-18T12:11:57.246Z,2.98
2018-09-18T12:13:32.755Z,3.08
2018-09-18T12:15:08.225Z,2.83
2018-09-18T12:16:43.794Z,2.92
2018-09-18T12:18:19.264Z,4.35
2018-09-18T12:19:54.758Z,3.05
2018-09-18T12:21:30.385Z,3.22
2018-09-18T12:23:06.093Z,2.33
2018-09-18T12:24:41.654Z,3.00
2018-09-18T12:26:17.149Z,2.72
2018-09-18T12:27:52.787Z,2.85
2018-09-18T12:29:28.261Z,4.30
2018-09-18T12:31:03.805Z,3.37
2018-09-18T12:32:39.357Z,2.90
2018-09-18T12:34:14.893Z,3.12
2018-09-18T12:35:50.471Z,2.60
2018-09-18T12:37:25.891Z,3.08
2018-09-18T12:39:01.380Z,2.85
2018-09-18T12:40:37.053Z,2.67
2018-09-18T12:42:12.733Z,3.67
2018-09-18T12:43:48.090Z,3.00
2018-09-18T12:45:23.564Z,2.90
2018-09-18T12:46:59.069Z,3.40
2018-09-18T12:48:34.734Z,4.12
2018-09-18T12:50:10.368Z,3.52
2018-09-18T12:51:45.723Z,3.33
2018-09-18T12:53:21.268Z,4.62
2018-09-18T12:54:56.802Z,3.10
2018-09-18T12:56:32.376Z,3.02
2018-09-18T12:58:07.971Z,3.08
2018-09-18T12:59:43.474Z,2.80
2018-09-18T13:01:18.920Z,5.20
2018-09-18T13:02:54.455Z,3.05
2018-09-18T13:04:29.941Z,4.00
2018-09-18T13:06:05.513Z,3.15
2018-09-18T13:07:40.903Z,3.40
2018-09-18T13:09:16.465Z,3.17
2018-09-18T13:10:51.999Z,2.85
2018-09-18T13:12:27.540Z,2.90
2018-09-18T13:14:03.127Z,3.20
2018-09-18T13:15:38.636Z,3.40
2018-09-18T13:17:14.243Z,3.10
2018-09-18T13:18:49.720Z,4.97
2018-09-18T13:20:25.333Z,3.22
2018-09-18T13:22:00.901Z,3.27
2018-09-18T13:23:36.413Z,3.20
2018-09-18T13:25:11.898Z,3.47
2018-09-18T13:26:47.489Z,3.02
2018-09-18T13:28:24.050Z,3.40
2018-09-18T13:29:59.557Z,3.52
2018-09-18T13:31:35.027Z,3.17
2018-09-18T13:33:10.561Z,3.60
2018-09-18T13:34:46.059Z,6.58
2018-09-18T13:36:21.670Z,3.83
2018-09-18T13:37:57.199Z,3.37
2018-09-18T13:39:32.748Z,3.37
2018-09-18T13:41:08.315Z,3.35
2018-09-18T13:42:43.845Z,3.40
2018-09-18T13:44:19.369Z,5.30
2018-09-18T13:45:54.885Z,4.30
2018-09-18T13:47:30.403Z,3.12
2018-09-18T13:49:06.033Z,3.02
2018-09-18T13:50:41.442Z,3.22
2018-09-18T13:52:16.935Z,3.45
2018-09-18T13:53:52.444Z,3.67
2018-09-18T13:55:27.936Z,3.50
2018-09-18T13:57:03.415Z,3.35
2018-09-18T13:58:38.884Z,2.90
2018-09-18T14:00:14.457Z,4.53
2018-09-18T14:01:50.133Z,2.80
2018-09-18T14:03:25.574Z,3.30
2018-09-18T14:05:01.361Z,4.45
2018-09-18T14:06:37.857Z,3.40
2018-09-18T14:08:13.427Z,3.47
2018-09-18T14:09:49.426Z,3.30
2018-09-18T14:11:24.957Z,3.65
2018-09-18T14:13:00.518Z,3.00
2018-09-18T14:14:36.047Z,2.92
2018-09-18T14:16:11.613Z,3.02
2018-09-18T14:17:47.140Z,4.17
2018-09-18T14:19:22.679Z,3.42
2018-09-18T14:20:58.227Z,3.95
2018-09-18T14:22:34.182Z,5.90
2018-09-18T14:24:09.680Z,3.20
2018-09-18T14:25:45.223Z,3.52
2018-09-18T14:27:20.804Z,3.47
2018-09-18T14:28:56.414Z,4.95
2018-09-18T14:30:31.938Z,3.37
2018-09-18T14:32:07.540Z,3.52
2018-09-18T14:33:43.045Z,3.40
2018-09-18T14:35:18.550Z,3.08
2018-09-18T14:36:54.113Z,3.47
2018-09-18T14:38:29.655Z,3.45
2018-09-18T14:40:05.222Z,5.33
2018-09-18T14:41:40.713Z,3.83
2018-09-18T14:43:16.242Z,3.60
2018-09-18T14:44:51.779Z,4.33
2018-09-18T14:46:27.277Z,4.05
2018-09-18T14:48:02.915Z,4.00
2018-09-18T14:49:38.373Z,3.37
2018-09-18T14:51:14.008Z,3.40
2018-09-18T14:52:49.488Z,4.50
2018-09-18T14:54:25.053Z,3.58
2018-09-18T14:56:00.518Z,5.25
2018-09-18T14:57:36.094Z,3.40
2018-09-18T14:59:11.607Z,3.50
2018-09-18T15:00:47.110Z,3.40
2018-09-18T15:02:22.597Z,3.85
2018-09-18T15:03:58.131Z,3.58
2018-09-18T15:05:33.613Z,3.47
2018-09-18T15:07:14.695Z,3.40
2018-09-18T15:08:50.232Z,3.05
2018-09-18T15:10:25.744Z,3.40
2018-09-18T15:12:01.225Z,5.85
2018-09-18T15:13:36.742Z,3.15
2018-09-18T15:15:12.243Z,3.40
2018-09-18T15:16:47.687Z,3.40
2018-09-18T15:18:23.867Z,3.70
2018-09-18T15:19:59.422Z,3.90
2018-09-18T15:21:34.993Z,3.55
2018-09-18T15:23:10.471Z,4.97
2018-09-18T15:24:46.035Z,4.78
2018-09-18T15:26:22.389Z,3.00
2018-09-18T15:27:58.000Z,5.35
2018-09-18T15:29:33.493Z,3.27
2018-09-18T15:31:08.957Z,3.65
2018-09-18T15:32:44.427Z,3.60
2018-09-18T15:34:20.070Z,3.75
2018-09-18T15:35:55.517Z,4.95
2018-09-18T15:37:31.080Z,4.72
2018-09-18T15:39:07.631Z,3.80
2018-09-18T15:40:43.175Z,4.72
2018-09-18T15:42:18.670Z,4.75
2018-09-18T15:43:54.202Z,3.45
2018-09-18T15:45:29.762Z,5.50
2018-09-18T15:47:05.509Z,3.67
2018-09-18T15:48:41.000Z,3.52
2018-09-18T15:50:16.567Z,3.52
2018-09-18T15:51:52.121Z,4.37
2018-09-18T15:53:27.542Z,4.75
2018-09-18T15:55:03.118Z,5.87
2018-09-18T15:56:38.587Z,4.33
2018-09-18T15:58:14.060Z,4.17
2018-09-18T15:59:49.645Z,6.60
2018-09-18T16:01:25.198Z,3.65
2018-09-18T16:03:00.932Z,4.70
2018-09-18T16:04:36.471Z,6.58
2018-09-18T16:06:12.039Z,4.37
2018-09-18T16:07:47.580Z,5.72
2018-09-18T16:09:23.035Z,8.57
2018-09-18T16:10:58.571Z,7.13
2018-09-18T16:12:34.109Z,5.63
2018-09-18T16:14:10.112Z,4.25
2018-09-18T16:15:45.634Z,4.40
2018-09-18T16:17:21.117Z,4.50
2018-09-18T16:18:56.619Z,3.73
2018-09-18T16:20:32.220Z,5.00
2018-09-18T16:22:07.734Z,5.57
2018-09-18T16:23:43.297Z,5.07
2018-09-18T16:25:18.778Z,4.90
2018-09-18T16:26:54.685Z,4.67
2018-09-18T16:28:30.500Z,6.03
2018-09-18T16:30:05.966Z,3.47
2018-09-18T16:31:41.477Z,3.80
2018-09-18T16:33:17.066Z,3.80
2018-09-18T16:34:52.592Z,3.47
2018-09-18T16:36:28.130Z,3.70
2018-09-18T16:38:03.669Z,3.93
2018-09-18T16:39:39.234Z,10.17
2018-09-18T16:41:14.729Z,6.70
2018-09-18T16:42:50.269Z,5.70
2018-09-18T16:44:25.804Z,10.50
2018-09-18T16:46:07.661Z,8.77
2018-09-18T16:47:43.688Z,4.23
2018-09-18T16:49:19.176Z,5.27
2018-09-18T16:50:54.641Z,6.37
2018-09-18T16:52:30.216Z,4.60
2018-09-18T16:54:10.782Z,6.27
2018-09-18T16:55:46.272Z,5.03
2018-09-18T16:57:21.823Z,4.73
2018-09-18T16:58:58.764Z,5.60
2018-09-18T17:00:34.307Z,4.27
2018-09-18T17:02:09.824Z,6.20
2018-09-18T17:03:47.874Z,3.50
2018-09-18T17:05:23.398Z,5.13
2018-09-18T17:06:58.920Z,7.10
2018-09-18T17:08:34.430Z,7.83
2018-09-18T17:10:10.004Z,4.03
2018-09-18T17:11:45.537Z,4.50
2018-09-18T17:13:21.040Z,4.13
2018-09-18T17:14:56.562Z,3.73
2018-09-18T17:16:32.127Z,3.90
2018-09-18T17:18:07.686Z,3.60
2018-09-18T17:19:44.174Z,4.30
2018-09-18T17:21:19.654Z,8.90
2018-09-18T17:22:56.238Z,5.03
2018-09-18T17:24:31.875Z,4.10
2018-09-18T17:26:07.317Z,5.80
2018-09-18T17:27:44.458Z,3.17
2018-09-18T17:29:20.558Z,3.77
2018-09-18T17:30:56.034Z,4.10
2018-09-18T17:32:33.525Z,3.63
2018-09-18T17:34:09.732Z,3.73
2018-09-18T17:35:45.149Z,3.77
2018-09-18T17:37:20.625Z,4.70
2018-09-18T17:38:56.148Z,4.13
2018-09-18T17:40:31.658Z,3.53
2018-09-18T17:42:07.193Z,3.77
2018-09-18T17:43:46.830Z,3.37
2018-09-18T17:45:23.235Z,3.50
2018-09-18T17:46:58.916Z,3.53
2018-09-18T17:48:34.464Z,3.50
2018-09-18T17:50:10.062Z,3.60
2018-09-18T17:51:46.179Z,4.13
2018-09-18T17:53:21.850Z,4.03
2018-09-18T17:54:57.570Z,3.80
2018-09-18T17:56:33.181Z,4.67
2018-09-18T17:58:08.787Z,4.20
2018-09-18T17:59:44.521Z,4.13
2018-09-18T18:01:20.141Z,3.70
2018-09-18T18:02:55.664Z,5.13
2018-09-18T18:04:31.236Z,3.80
2018-09-18T18:06:06.892Z,3.80
2018-09-18T18:07:42.590Z,3.40
2018-09-18T18:09:18.109Z,3.60
2018-09-18T18:10:55.019Z,3.90
2018-09-18T18:12:30.536Z,3.20
2018-09-18T18:14:06.274Z,3.70
2018-09-18T18:15:41.945Z,3.80
2018-09-18T18:17:17.642Z,4.10
2018-09-18T18:18:53.294Z,3.90
2018-09-18T18:20:28.907Z,3.50
2018-09-18T18:22:04.399Z,3.70
2018-09-18T18:23:40.134Z,4.00
2018-09-18T18:25:15.638Z,3.90
2018-09-18T18:26:51.222Z,4.00
2018-09-18T18:28:26.791Z,4.10
2018-09-18T18:30:02.360Z,4.60
2018-09-18T18:31:38.253Z,5.00
2018-09-18T18:33:13.744Z,4.40
2018-09-18T18:34:50.263Z,4.77
2018-09-18T18:36:25.777Z,4.00
2018-09-18T18:38:01.500Z,4.23
2018-09-18T18:39:37.035Z,4.97
2018-09-18T18:41:12.579Z,3.60
2018-09-18T18:42:48.476Z,3.87
2018-09-18T18:44:24.286Z,5.53
2018-09-18T18:46:00.554Z,4.63
2018-09-18T18:47:36.197Z,4.33
2018-09-18T18:49:13.011Z,3.93
2018-09-18T18:50:48.809Z,3.70
2018-09-18T18:52:24.356Z,4.83
2018-09-18T18:54:02.220Z,4.47
2018-09-18T18:55:37.792Z,4.20
2018-09-18T18:57:13.306Z,4.30
2018-09-18T18:58:48.848Z,3.37
2018-09-18T19:00:25.403Z,4.30
2018-09-18T19:02:01.262Z,6.37
2018-09-18T19:03:36.736Z,4.60
2018-09-18T19:05:12.294Z,5.77
2018-09-18T19:06:48.191Z,5.13
2018-09-18T19:08:23.717Z,6.13
2018-09-18T19:09:59.295Z,4.40
2018-09-18T19:11:34.885Z,3.90
2018-09-18T19:13:10.591Z,3.90
2018-09-18T19:14:46.152Z,4.23
2018-09-18T19:16:21.712Z,4.83
2018-09-18T19:17:56.305Z,3.60
2018-09-18T19:19:31.497Z,3.50
2018-09-18T19:21:07.122Z,3.90
2018-09-18T19:22:42.705Z,3.97
2018-09-18T19:24:18.406Z,4.03
2018-09-18T19:25:54.059Z,4.10
2018-09-18T19:27:29.465Z,3.83
2018-09-18T19:29:06.048Z,3.90
2018-09-18T19:30:41.629Z,4.03
2018-09-18T19:32:17.512Z,4.00
2018-09-18T19:33:53.113Z,4.33
2018-09-18T19:35:28.735Z,3.80
2018-09-18T19:37:04.258Z,4.03
2018-09-18T19:38:39.796Z,3.90
2018-09-18T19:40:16.256Z,4.13
2018-09-18T19:41:51.943Z,3.70
2018-09-18T19:43:27.455Z,3.97
2018-09-18T19:45:03.266Z,4.00
2018-09-18T19:46:38.782Z,4.10
2018-09-18T19:48:14.430Z,3.90
2018-09-18T19:49:50.201Z,4.30
2018-09-18T19:51:27.288Z,4.17
2018-09-18T19:53:04.728Z,4.90
2018-09-18T19:54:41.680Z,3.83
2018-09-18T19:56:17.143Z,4.00
2018-09-18T19:57:52.782Z,4.07
2018-09-18T19:59:28.408Z,4.13
2018-09-18T20:01:03.944Z,4.07
2018-09-18T20:02:39.787Z,4.07
2018-09-18T20:04:15.445Z,4.37
2018-09-18T20:05:51.049Z,4.07
2018-09-18T20:07:26.597Z,4.47
2018-09-18T20:09:02.378Z,4.10
2018-09-18T20:10:37.920Z,4.10
2018-09-18T20:12:13.594Z,4.93
2018-09-18T20:13:49.343Z,4.53
2018-09-18T20:15:27.004Z,3.90
2018-09-18T20:17:02.541Z,3.90
2018-09-18T20:18:38.092Z,4.03
2018-09-18T20:20:13.664Z,4.50
2018-09-18T20:21:49.174Z,3.97
2018-09-18T20:23:24.952Z,4.10
2018-09-18T20:25:00.507Z,4.00
2018-09-18T20:26:36.137Z,4.10
2018-09-18T20:28:11.629Z,3.90
2018-09-18T20:29:47.212Z,4.70
2018-09-18T20:31:22.748Z,3.90
2018-09-18T20:32:58.846Z,4.57
2018-09-18T20:34:34.425Z,4.40
2018-09-18T20:36:10.008Z,4.80
2018-09-18T20:37:45.481Z,4.83
2018-09-18T20:39:21.005Z,4.30
2018-09-18T20:40:56.501Z,4.83
2018-09-18T20:42:32.013Z,5.13
2018-09-18T20:44:07.682Z,4.13
2018-09-18T20:45:43.218Z,5.73
2018-09-18T20:47:18.732Z,4.63
2018-09-18T20:48:54.408Z,5.10
2018-09-18T20:50:29.872Z,4.13
2018-09-18T20:52:05.366Z,4.30
2018-09-18T20:53:40.962Z,4.80
2018-09-18T20:55:16.996Z,5.30
2018-09-18T20:56:52.608Z,4.80
2018-09-18T20:58:28.110Z,5.33
2018-09-18T21:00:03.714Z,4.63
2018-09-18T21:01:39.250Z,5.20
2018-09-18T21:03:14.805Z,6.23
2018-09-18T21:04:50.346Z,5.13
2018-09-18T21:06:25.888Z,7.13
2018-09-18T21:08:01.419Z,4.50
2018-09-18T21:09:36.985Z,4.60
2018-09-18T21:11:12.584Z,4.40
2018-09-18T21:12:48.194Z,6.00
2018-09-18T21:14:23.678Z,4.13